sensor_id;sensor_type;location;lat;lon;timestamp;pressure;altitude;pressure_sealevel;temperature;humidity
64294;BME280;50636;45.596;5.258;2023-05-11T00:01:15;98698.34;;;14.94;60.21
64294;BME280;50636;45.596;5.258;2023-05-11T00:03:40;98696.75;;;15.16;59.65
64294;BME280;50636;45.596;5.258;2023-05-11T00:06:06;98695.94;;;15.28;59.03
64294;BME280;50636;45.596;5.258;2023-05-11T00:08:32;98699.28;;;15.35;58.50
64294;BME280;50636;45.596;5.258;2023-05-11T00:10:58;98697.78;;;15.39;58.23
64294;BME280;50636;45.596;5.258;2023-05-11T00:13:27;98696.75;;;15.40;57.89
64294;BME280;50636;45.596;5.258;2023-05-11T00:15:53;98686.06;;;15.23;57.47
64294;BME280;50636;45.596;5.258;2023-05-11T00:18:19;98692.63;;;14.97;57.62
64294;BME280;50636;45.596;5.258;2023-05-11T00:20:44;98692.94;;;14.77;58.37
64294;BME280;50636;45.596;5.258;2023-05-11T00:23:10;98688.78;;;14.69;58.74
64294;BME280;50636;45.596;5.258;2023-05-11T00:25:36;98688.81;;;14.81;59.26
64294;BME280;50636;45.596;5.258;2023-05-11T00:28:03;98693.88;;;15.06;58.96
64294;BME280;50636;45.596;5.258;2023-05-11T00:30:29;98684.59;;;15.27;58.92
64294;BME280;50636;45.596;5.258;2023-05-11T00:32:55;98687.75;;;15.65;57.95
64294;BME280;50636;45.596;5.258;2023-05-11T00:35:20;98681.56;;;16.00;56.78
64294;BME280;50636;45.596;5.258;2023-05-11T00:37:46;98684.84;;;16.18;55.85
64294;BME280;50636;45.596;5.258;2023-05-11T00:40:12;98685.16;;;16.34;55.41
64294;BME280;50636;45.596;5.258;2023-05-11T00:42:38;98684.66;;;16.37;55.39
64294;BME280;50636;45.596;5.258;2023-05-11T00:45:04;98680.88;;;16.33;54.97
64294;BME280;50636;45.596;5.258;2023-05-11T00:47:30;98676.53;;;16.27;55.11
64294;BME280;50636;45.596;5.258;2023-05-11T00:49:56;98677.31;;;16.27;54.99
64294;BME280;50636;45.596;5.258;2023-05-11T00:52:22;98674.84;;;16.21;55.08
64294;BME280;50636;45.596;5.258;2023-05-11T00:54:47;98672.75;;;16.23;55.09
64294;BME280;50636;45.596;5.258;2023-05-11T00:57:13;98681.72;;;16.22;54.86
64294;BME280;50636;45.596;5.258;2023-05-11T00:59:40;98679.38;;;16.08;55.07
64294;BME280;50636;45.596;5.258;2023-05-11T01:02:05;98675.06;;;15.90;55.42
64294;BME280;50636;45.596;5.258;2023-05-11T01:04:32;98672.88;;;15.87;55.67
64294;BME280;50636;45.596;5.258;2023-05-11T01:15:31;98676.69;;;16.20;53.97
64294;BME280;50636;45.596;5.258;2023-05-11T01:20:59;98667.50;;;15.70;54.09
64294;BME280;50636;45.596;5.258;2023-05-11T01:31:54;98673.06;;;14.86;56.24
64294;BME280;50636;45.596;5.258;2023-05-11T01:34:24;98672.94;;;14.81;56.85
64294;BME280;50636;45.596;5.258;2023-05-11T01:37:12;98665.03;;;14.81;56.88
64294;BME280;50636;45.596;5.258;2023-05-11T01:40:09;98665.25;;;14.80;57.25
64294;BME280;50636;45.596;5.258;2023-05-11T01:43:12;98664.78;;;14.94;57.13
64294;BME280;50636;45.596;5.258;2023-05-11T01:45:45;98661.94;;;14.96;56.88
64294;BME280;50636;45.596;5.258;2023-05-11T01:48:20;98664.69;;;15.01;56.59
64294;BME280;50636;45.596;5.258;2023-05-11T01:50:48;98669.16;;;15.01;56.82
64294;BME280;50636;45.596;5.258;2023-05-11T01:53:16;98659.88;;;15.10;57.15
64294;BME280;50636;45.596;5.258;2023-05-11T01:55:44;98658.47;;;15.19;56.97
64294;BME280;50636;45.596;5.258;2023-05-11T01:58:13;98657.22;;;15.22;56.96
64294;BME280;50636;45.596;5.258;2023-05-11T02:00:42;98658.44;;;15.43;57.18
64294;BME280;50636;45.596;5.258;2023-05-11T02:03:09;98652.63;;;15.69;55.46
64294;BME280;50636;45.596;5.258;2023-05-11T02:05:35;98656.34;;;15.56;55.81
64294;BME280;50636;45.596;5.258;2023-05-11T02:08:04;98652.78;;;15.63;55.81
64294;BME280;50636;45.596;5.258;2023-05-11T02:10:32;98650.84;;;15.58;56.22
64294;BME280;50636;45.596;5.258;2023-05-11T02:13:00;98648.06;;;15.76;56.42
64294;BME280;50636;45.596;5.258;2023-05-11T02:15:28;98642.09;;;16.10;55.55
64294;BME280;50636;45.596;5.258;2023-05-11T02:17:55;98646.53;;;16.38;54.75
64294;BME280;50636;45.596;5.258;2023-05-11T02:20:21;98643.16;;;16.60;53.72
64294;BME280;50636;45.596;5.258;2023-05-11T02:22:49;98653.38;;;16.51;52.96
64294;BME280;50636;45.596;5.258;2023-05-11T02:25:15;98658.44;;;16.07;53.16
64294;BME280;50636;45.596;5.258;2023-05-11T02:27:42;98658.28;;;15.61;54.78
64294;BME280;50636;45.596;5.258;2023-05-11T02:30:08;98656.78;;;15.65;55.50
64294;BME280;50636;45.596;5.258;2023-05-11T02:32:36;98654.44;;;15.92;55.09
64294;BME280;50636;45.596;5.258;2023-05-11T02:35:12;98649.06;;;16.16;54.37
64294;BME280;50636;45.596;5.258;2023-05-11T02:37:42;98657.38;;;16.36;53.91
64294;BME280;50636;45.596;5.258;2023-05-11T02:40:30;98651.19;;;16.48;53.57
64294;BME280;50636;45.596;5.258;2023-05-11T02:43:06;98650.50;;;16.52;53.15
64294;BME280;50636;45.596;5.258;2023-05-11T02:45:33;98647.25;;;16.33;52.87
64294;BME280;50636;45.596;5.258;2023-05-11T02:48:06;98646.50;;;15.92;53.98
64294;BME280;50636;45.596;5.258;2023-05-11T02:50:36;98649.31;;;15.86;54.60
64294;BME280;50636;45.596;5.258;2023-05-11T02:53:06;98636.06;;;15.86;54.58
64294;BME280;50636;45.596;5.258;2023-05-11T02:55:32;98635.81;;;15.87;54.65
64294;BME280;50636;45.596;5.258;2023-05-11T02:57:58;98640.81;;;15.84;54.46
64294;BME280;50636;45.596;5.258;2023-05-11T03:00:24;98640.69;;;15.67;54.88
64294;BME280;50636;45.596;5.258;2023-05-11T03:02:50;98637.28;;;15.54;55.48
64294;BME280;50636;45.596;5.258;2023-05-11T03:05:16;98635.16;;;15.68;55.84
64294;BME280;50636;45.596;5.258;2023-05-11T03:07:42;98637.69;;;15.75;55.28
64294;BME280;50636;45.596;5.258;2023-05-11T03:10:08;98636.81;;;15.57;55.43
64294;BME280;50636;45.596;5.258;2023-05-11T03:12:34;98635.13;;;15.40;55.54
64294;BME280;50636;45.596;5.258;2023-05-11T03:15:01;98631.81;;;15.21;56.33
64294;BME280;50636;45.596;5.258;2023-05-11T03:17:29;98637.78;;;15.16;56.46
64294;BME280;50636;45.596;5.258;2023-05-11T03:19:57;98636.16;;;15.15;56.42
64294;BME280;50636;45.596;5.258;2023-05-11T03:22:23;98635.72;;;15.18;56.82
64294;BME280;50636;45.596;5.258;2023-05-11T03:24:50;98635.22;;;15.33;56.82
64294;BME280;50636;45.596;5.258;2023-05-11T03:27:17;98629.50;;;15.36;56.72
64294;BME280;50636;45.596;5.258;2023-05-11T03:29:44;98625.69;;;15.44;56.72
64294;BME280;50636;45.596;5.258;2023-05-11T03:32:11;98626.69;;;15.54;56.17
64294;BME280;50636;45.596;5.258;2023-05-11T03:34:37;98623.91;;;15.61;56.04
64294;BME280;50636;45.596;5.258;2023-05-11T03:37:04;98619.75;;;15.65;55.59
64294;BME280;50636;45.596;5.258;2023-05-11T03:39:32;98620.81;;;15.64;55.85
64294;BME280;50636;45.596;5.258;2023-05-11T03:41:58;98611.59;;;15.67;55.75
64294;BME280;50636;45.596;5.258;2023-05-11T03:44:27;98620.88;;;15.69;55.65
64294;BME280;50636;45.596;5.258;2023-05-11T03:46:55;98612.19;;;15.57;55.80
64294;BME280;50636;45.596;5.258;2023-05-11T03:49:23;98614.19;;;15.50;56.35
64294;BME280;50636;45.596;5.258;2023-05-11T03:51:49;98614.34;;;15.31;56.56
64294;BME280;50636;45.596;5.258;2023-05-11T03:54:15;98613.84;;;15.34;56.87
64294;BME280;50636;45.596;5.258;2023-05-11T03:56:40;98607.09;;;15.15;57.04
64294;BME280;50636;45.596;5.258;2023-05-11T03:59:06;98612.41;;;14.91;57.98
64294;BME280;50636;45.596;5.258;2023-05-11T04:01:34;98605.06;;;14.70;59.11
64294;BME280;50636;45.596;5.258;2023-05-11T04:03:59;98605.41;;;14.85;59.19
64294;BME280;50636;45.596;5.258;2023-05-11T04:06:25;98609.06;;;15.08;58.85
64294;BME280;50636;45.596;5.258;2023-05-11T04:08:51;98600.53;;;15.29;58.42
64294;BME280;50636;45.596;5.258;2023-05-11T04:11:17;98605.19;;;15.51;58.10
64294;BME280;50636;45.596;5.258;2023-05-11T04:13:42;98600.44;;;15.65;57.61
64294;BME280;50636;45.596;5.258;2023-05-11T04:16:08;98597.78;;;15.65;57.25
64294;BME280;50636;45.596;5.258;2023-05-11T04:18:34;98595.84;;;15.60;57.32
64294;BME280;50636;45.596;5.258;2023-05-11T04:20:59;98600.00;;;15.56;57.55
64294;BME280;50636;45.596;5.258;2023-05-11T04:23:25;98592.31;;;15.54;57.47
64294;BME280;50636;45.596;5.258;2023-05-11T04:25:52;98599.09;;;15.50;57.77
64294;BME280;50636;45.596;5.258;2023-05-11T04:28:19;98599.00;;;15.45;57.91
64294;BME280;50636;45.596;5.258;2023-05-11T04:30:54;98597.41;;;15.32;58.18
64294;BME280;50636;45.596;5.258;2023-05-11T04:33:20;98604.94;;;15.12;58.77
64294;BME280;50636;45.596;5.258;2023-05-11T04:35:45;98603.66;;;15.03;59.33
64294;BME280;50636;45.596;5.258;2023-05-11T04:38:12;98602.50;;;14.98;59.73
64294;BME280;50636;45.596;5.258;2023-05-11T04:40:39;98598.06;;;14.99;59.73
64294;BME280;50636;45.596;5.258;2023-05-11T04:43:05;98591.59;;;14.95;59.86
64294;BME280;50636;45.596;5.258;2023-05-11T04:45:30;98596.22;;;15.00;60.19
64294;BME280;50636;45.596;5.258;2023-05-11T04:47:56;98593.09;;;15.03;59.91
64294;BME280;50636;45.596;5.258;2023-05-11T04:50:21;98596.66;;;15.08;60.33
64294;BME280;50636;45.596;5.258;2023-05-11T04:52:47;98598.00;;;15.23;60.20
64294;BME280;50636;45.596;5.258;2023-05-11T04:55:13;98599.69;;;15.41;59.78
64294;BME280;50636;45.596;5.258;2023-05-11T04:57:38;98601.53;;;15.52;59.30
64294;BME280;50636;45.596;5.258;2023-05-11T05:00:08;98605.19;;;15.51;59.47
64294;BME280;50636;45.596;5.258;2023-05-11T05:02:34;98599.31;;;15.49;59.47
64294;BME280;50636;45.596;5.258;2023-05-11T05:05:00;98601.59;;;15.57;59.67
64294;BME280;50636;45.596;5.258;2023-05-11T05:07:26;98600.88;;;15.73;59.16
64294;BME280;50636;45.596;5.258;2023-05-11T05:09:51;98604.63;;;15.89;58.76
64294;BME280;50636;45.596;5.258;2023-05-11T05:12:17;98601.25;;;16.06;58.52
64294;BME280;50636;45.596;5.258;2023-05-11T05:14:43;98599.50;;;16.28;57.84
64294;BME280;50636;45.596;5.258;2023-05-11T05:17:09;98595.47;;;16.60;57.04
64294;BME280;50636;45.596;5.258;2023-05-11T05:19:34;98598.44;;;16.80;56.19
64294;BME280;50636;45.596;5.258;2023-05-11T05:22:00;98598.22;;;16.99;55.91
64294;BME280;50636;45.596;5.258;2023-05-11T05:24:26;98597.06;;;17.11;55.43
64294;BME280;50636;45.596;5.258;2023-05-11T05:26:51;98592.44;;;17.24;55.03
64294;BME280;50636;45.596;5.258;2023-05-11T05:29:17;98594.50;;;17.39;54.48
64294;BME280;50636;45.596;5.258;2023-05-11T05:31:43;98600.91;;;17.43;53.99
64294;BME280;50636;45.596;5.258;2023-05-11T05:34:08;98604.78;;;17.35;53.54
64294;BME280;50636;45.596;5.258;2023-05-11T05:36:34;98594.06;;;17.25;53.85
64294;BME280;50636;45.596;5.258;2023-05-11T05:38:59;98602.69;;;17.15;53.99
64294;BME280;50636;45.596;5.258;2023-05-11T05:41:28;98603.00;;;17.02;54.41
64294;BME280;50636;45.596;5.258;2023-05-11T05:43:53;98601.75;;;16.87;54.76
64294;BME280;50636;45.596;5.258;2023-05-11T05:46:19;98611.06;;;16.73;55.33
64294;BME280;50636;45.596;5.258;2023-05-11T05:48:45;98611.47;;;16.82;55.49
64294;BME280;50636;45.596;5.258;2023-05-11T05:51:10;98607.16;;;16.92;55.51
64294;BME280;50636;45.596;5.258;2023-05-11T05:53:36;98602.13;;;17.13;54.61
64294;BME280;50636;45.596;5.258;2023-05-11T05:56:02;98595.59;;;17.43;54.21
64294;BME280;50636;45.596;5.258;2023-05-11T05:58:28;98600.16;;;17.69;53.19
64294;BME280;50636;45.596;5.258;2023-05-11T06:00:53;98594.63;;;17.49;53.45
64294;BME280;50636;45.596;5.258;2023-05-11T06:03:19;98606.69;;;17.40;53.82
64294;BME280;50636;45.596;5.258;2023-05-11T06:05:45;98604.66;;;17.69;53.56
64294;BME280;50636;45.596;5.258;2023-05-11T06:08:10;98612.13;;;17.72;53.08
64294;BME280;50636;45.596;5.258;2023-05-11T06:10:36;98589.09;;;17.55;53.20
64294;BME280;50636;45.596;5.258;2023-05-11T06:13:02;98596.88;;;17.40;53.66
64294;BME280;50636;45.596;5.258;2023-05-11T06:15:27;98606.56;;;17.29;53.78
64294;BME280;50636;45.596;5.258;2023-05-11T06:17:53;98602.25;;;17.23;54.31
64294;BME280;50636;45.596;5.258;2023-05-11T06:20:19;98602.50;;;17.44;54.16
64294;BME280;50636;45.596;5.258;2023-05-11T06:22:45;98602.50;;;17.66;53.71
64294;BME280;50636;45.596;5.258;2023-05-11T06:25:11;98595.44;;;17.76;53.28
64294;BME280;50636;45.596;5.258;2023-05-11T06:27:37;98593.63;;;17.82;53.25
64294;BME280;50636;45.596;5.258;2023-05-11T06:30:03;98606.25;;;17.70;53.27
64294;BME280;50636;45.596;5.258;2023-05-11T06:32:28;98595.97;;;17.78;53.27
64294;BME280;50636;45.596;5.258;2023-05-11T06:34:54;98593.88;;;18.03;52.77
64294;BME280;50636;45.596;5.258;2023-05-11T06:37:20;98596.00;;;18.33;51.85
64294;BME280;50636;45.596;5.258;2023-05-11T06:39:46;98588.69;;;18.45;51.53
64294;BME280;50636;45.596;5.258;2023-05-11T06:42:12;98590.66;;;18.98;50.76
64294;BME280;50636;45.596;5.258;2023-05-11T06:44:38;98583.53;;;19.82;49.10
64294;BME280;50636;45.596;5.258;2023-05-11T06:47:07;98576.41;;;20.64;47.20
64294;BME280;50636;45.596;5.258;2023-05-11T06:49:32;98579.16;;;21.45;44.69
64294;BME280;50636;45.596;5.258;2023-05-11T06:51:58;98574.47;;;21.71;44.03
64294;BME280;50636;45.596;5.258;2023-05-11T06:54:24;98575.25;;;22.16;43.06
64294;BME280;50636;45.596;5.258;2023-05-11T06:56:49;98575.47;;;22.59;41.82
64294;BME280;50636;45.596;5.258;2023-05-11T06:59:15;98575.69;;;23.40;39.70
64294;BME280;50636;45.596;5.258;2023-05-11T07:01:41;98576.88;;;23.53;39.35
64294;BME280;50636;45.596;5.258;2023-05-11T07:04:06;98571.69;;;23.81;38.35
64294;BME280;50636;45.596;5.258;2023-05-11T07:06:32;98585.78;;;24.24;37.53
64294;BME280;50636;45.596;5.258;2023-05-11T07:08:58;98578.81;;;24.23;37.12
64294;BME280;50636;45.596;5.258;2023-05-11T07:11:24;98585.41;;;23.55;38.16
64294;BME280;50636;45.596;5.258;2023-05-11T07:13:50;98581.47;;;22.99;38.77
64294;BME280;50636;45.596;5.258;2023-05-11T07:16:16;98584.47;;;22.39;40.12
64294;BME280;50636;45.596;5.258;2023-05-11T07:18:42;98580.69;;;22.06;40.41
64294;BME280;50636;45.596;5.258;2023-05-11T07:21:07;98580.25;;;21.93;40.70
64294;BME280;50636;45.596;5.258;2023-05-11T07:23:33;98584.22;;;21.96;40.71
64294;BME280;50636;45.596;5.258;2023-05-11T07:25:59;98579.47;;;21.88;40.70
64294;BME280;50636;45.596;5.258;2023-05-11T07:28:26;98577.81;;;22.37;40.17
64294;BME280;50636;45.596;5.258;2023-05-11T07:30:51;98579.44;;;22.91;39.50
64294;BME280;50636;45.596;5.258;2023-05-11T07:33:17;98584.16;;;23.04;38.57
64294;BME280;50636;45.596;5.258;2023-05-11T07:35:43;98584.28;;;22.89;39.11
64294;BME280;50636;45.596;5.258;2023-05-11T07:38:08;98577.31;;;22.64;38.97
64294;BME280;50636;45.596;5.258;2023-05-11T07:40:36;98576.91;;;22.46;39.15
64294;BME280;50636;45.596;5.258;2023-05-11T07:43:01;98572.22;;;22.33;39.51
64294;BME280;50636;45.596;5.258;2023-05-11T07:45:27;98581.66;;;22.15;39.99
64294;BME280;50636;45.596;5.258;2023-05-11T07:47:53;98574.44;;;21.16;41.93
64294;BME280;50636;45.596;5.258;2023-05-11T07:50:18;98583.09;;;20.21;43.67
64294;BME280;50636;45.596;5.258;2023-05-11T07:52:44;98590.47;;;19.72;45.00
64294;BME280;50636;45.596;5.258;2023-05-11T07:55:10;98583.69;;;19.44;45.77
64294;BME280;50636;45.596;5.258;2023-05-11T07:57:35;98593.47;;;19.28;46.22
64294;BME280;50636;45.596;5.258;2023-05-11T08:00:01;98590.78;;;19.23;46.48
64294;BME280;50636;45.596;5.258;2023-05-11T08:02:29;98579.38;;;19.28;46.44
64294;BME280;50636;45.596;5.258;2023-05-11T08:04:54;98581.22;;;19.27;46.48
64294;BME280;50636;45.596;5.258;2023-05-11T08:07:20;98568.25;;;19.46;46.63
64294;BME280;50636;45.596;5.258;2023-05-11T08:09:46;98568.16;;;20.30;46.47
64294;BME280;50636;45.596;5.258;2023-05-11T08:12:12;98565.19;;;22.03;42.61
64294;BME280;50636;45.596;5.258;2023-05-11T08:14:37;98553.69;;;22.95;39.97
64294;BME280;50636;45.596;5.258;2023-05-11T08:17:03;98559.91;;;23.39;38.76
64294;BME280;50636;45.596;5.258;2023-05-11T08:19:30;98554.84;;;23.56;38.56
64294;BME280;50636;45.596;5.258;2023-05-11T08:21:55;98550.97;;;23.86;37.37
64294;BME280;50636;45.596;5.258;2023-05-11T08:24:21;98538.84;;;25.01;35.94
64294;BME280;50636;45.596;5.258;2023-05-11T08:26:46;98526.53;;;26.95;32.02
64294;BME280;50636;45.596;5.258;2023-05-11T08:29:12;98529.16;;;26.77;31.51
64294;BME280;50636;45.596;5.258;2023-05-11T08:31:38;98535.19;;;27.32;31.38
64294;BME280;50636;45.596;5.258;2023-05-11T08:34:06;98523.44;;;30.02;28.40
64294;BME280;50636;45.596;5.258;2023-05-11T08:36:34;98524.16;;;31.99;25.10
64294;BME280;50636;45.596;5.258;2023-05-11T08:39:00;98510.81;;;31.38;25.73
64294;BME280;50636;45.596;5.258;2023-05-11T08:41:25;98510.28;;;30.13;26.42
64294;BME280;50636;45.596;5.258;2023-05-11T08:43:51;98521.91;;;28.99;28.05
64294;BME280;50636;45.596;5.258;2023-05-11T08:46:20;98524.00;;;27.99;29.00
64294;BME280;50636;45.596;5.258;2023-05-11T08:48:48;98522.72;;;26.96;30.38
64294;BME280;50636;45.596;5.258;2023-05-11T08:51:15;98524.81;;;25.68;32.97
64294;BME280;50636;45.596;5.258;2023-05-11T08:53:41;98525.78;;;24.81;34.38
64294;BME280;50636;45.596;5.258;2023-05-11T08:56:07;98529.91;;;23.80;37.56
64294;BME280;50636;45.596;5.258;2023-05-11T08:58:34;98525.88;;;22.72;39.00
64294;BME280;50636;45.596;5.258;2023-05-11T09:01:03;98529.63;;;22.07;40.24
64294;BME280;50636;45.596;5.258;2023-05-11T09:03:30;98526.44;;;21.66;41.94
64294;BME280;50636;45.596;5.258;2023-05-11T09:05:59;98534.31;;;21.37;43.80
64294;BME280;50636;45.596;5.258;2023-05-11T09:08:28;98535.28;;;21.01;47.49
64294;BME280;50636;45.596;5.258;2023-05-11T09:10:55;98528.94;;;20.46;47.62
64294;BME280;50636;45.596;5.258;2023-05-11T09:13:21;98539.38;;;20.11;49.89
64294;BME280;50636;45.596;5.258;2023-05-11T09:15:48;98526.56;;;20.39;49.11
64294;BME280;50636;45.596;5.258;2023-05-11T09:18:14;98540.94;;;20.79;47.89
64294;BME280;50636;45.596;5.258;2023-05-11T09:20:42;98530.59;;;21.32;46.14
64294;BME280;50636;45.596;5.258;2023-05-11T09:23:08;98520.72;;;21.83;44.56
64294;BME280;50636;45.596;5.258;2023-05-11T09:25:36;98519.00;;;21.97;43.43
64294;BME280;50636;45.596;5.258;2023-05-11T09:28:04;98507.50;;;23.32;41.43
64294;BME280;50636;45.596;5.258;2023-05-11T09:30:29;98506.59;;;26.33;35.98
64294;BME280;50636;45.596;5.258;2023-05-11T09:32:57;98504.03;;;28.47;31.94
64294;BME280;50636;45.596;5.258;2023-05-11T09:35:31;98484.69;;;29.77;30.05
64294;BME280;50636;45.596;5.258;2023-05-11T09:38:01;98482.59;;;31.14;27.60
64294;BME280;50636;45.596;5.258;2023-05-11T09:40:33;98481.31;;;32.21;25.35
64294;BME280;50636;45.596;5.258;2023-05-11T09:43:00;98474.91;;;33.48;24.42
64294;BME280;50636;45.596;5.258;2023-05-11T09:45:40;98463.97;;;35.02;22.87
64294;BME280;50636;45.596;5.258;2023-05-11T09:48:12;98471.88;;;33.69;22.09
64294;BME280;50636;45.596;5.258;2023-05-11T09:50:39;98482.66;;;32.59;22.56
64294;BME280;50636;45.596;5.258;2023-05-11T09:53:05;98479.38;;;31.77;23.75
64294;BME280;50636;45.596;5.258;2023-05-11T09:55:31;98467.50;;;32.42;22.91
64294;BME280;50636;45.596;5.258;2023-05-11T09:57:58;98468.03;;;31.06;23.95
64294;BME280;50636;45.596;5.258;2023-05-11T10:00:24;98468.13;;;31.22;24.03
64294;BME280;50636;45.596;5.258;2023-05-11T10:03:04;98459.81;;;30.91;24.48
64294;BME280;50636;45.596;5.258;2023-05-11T10:05:32;98453.72;;;30.32;25.72
64294;BME280;50636;45.596;5.258;2023-05-11T10:08:03;98459.06;;;30.07;25.67
64294;BME280;50636;45.596;5.258;2023-05-11T10:10:31;98458.28;;;28.81;26.64
64294;BME280;50636;45.596;5.258;2023-05-11T10:12:58;98458.16;;;27.48;27.81
64294;BME280;50636;45.596;5.258;2023-05-11T10:15:27;98458.66;;;26.35;29.05
64294;BME280;50636;45.596;5.258;2023-05-11T10:17:54;98457.47;;;26.19;29.79
64294;BME280;50636;45.596;5.258;2023-05-11T10:20:20;98457.13;;;28.14;28.49
64294;BME280;50636;45.596;5.258;2023-05-11T10:22:46;98450.56;;;29.00;26.79
64294;BME280;50636;45.596;5.258;2023-05-11T10:25:14;98455.72;;;28.07;27.58
64294;BME280;50636;45.596;5.258;2023-05-11T10:27:41;98453.34;;;27.10;29.38
64294;BME280;50636;45.596;5.258;2023-05-11T10:30:09;98456.41;;;26.60;30.51
64294;BME280;50636;45.596;5.258;2023-05-11T10:32:35;98449.63;;;28.28;28.85
64294;BME280;50636;45.596;5.258;2023-05-11T10:35:04;98437.59;;;29.57;26.88
64294;BME280;50636;45.596;5.258;2023-05-11T10:37:31;98435.00;;;30.52;25.03
64294;BME280;50636;45.596;5.258;2023-05-11T10:39:57;98430.91;;;30.95;24.88
64294;BME280;50636;45.596;5.258;2023-05-11T10:42:33;98427.59;;;31.98;23.82
64294;BME280;50636;45.596;5.258;2023-05-11T10:45:19;98419.13;;;31.56;23.59
64294;BME280;50636;45.596;5.258;2023-05-11T10:47:55;98421.94;;;29.96;24.67
64294;BME280;50636;45.596;5.258;2023-05-11T10:53:31;98417.63;;;28.47;26.83
64294;BME280;50636;45.596;5.258;2023-05-11T10:56:18;98404.34;;;29.90;25.43
64294;BME280;50636;45.596;5.258;2023-05-11T10:59:09;98413.16;;;29.11;25.31
64294;BME280;50636;45.596;5.258;2023-05-11T11:01:41;98415.94;;;28.34;26.48
64294;BME280;50636;45.596;5.258;2023-05-11T11:04:10;98407.38;;;27.76;26.81
64294;BME280;50636;45.596;5.258;2023-05-11T11:06:40;98413.06;;;26.87;28.00
64294;BME280;50636;45.596;5.258;2023-05-11T11:09:14;98407.19;;;26.28;28.87
64294;BME280;50636;45.596;5.258;2023-05-11T11:11:46;98405.00;;;26.87;28.63
64294;BME280;50636;45.596;5.258;2023-05-11T11:14:16;98394.84;;;28.87;26.07
64294;BME280;50636;45.596;5.258;2023-05-11T11:19:38;98379.00;;;32.25;22.70
64294;BME280;50636;45.596;5.258;2023-05-11T11:22:04;98373.97;;;33.14;22.03
64294;BME280;50636;45.596;5.258;2023-05-11T11:27:06;98377.88;;;32.10;21.66
64294;BME280;50636;45.596;5.258;2023-05-11T11:29:37;98374.59;;;30.02;22.90
64294;BME280;50636;45.596;5.258;2023-05-11T11:34:48;98383.66;;;27.08;26.70
64294;BME280;50636;45.596;5.258;2023-05-11T11:37:15;98380.78;;;26.39;28.50
64294;BME280;50636;45.596;5.258;2023-05-11T11:42:18;98364.47;;;28.69;26.45
64294;BME280;50636;45.596;5.258;2023-05-11T11:44:44;98359.91;;;29.78;25.05
64294;BME280;50636;45.596;5.258;2023-05-11T11:49:41;98357.38;;;30.31;23.98
64294;BME280;50636;45.596;5.258;2023-05-11T11:52:31;98349.44;;;30.63;23.36
64294;BME280;50636;45.596;5.258;2023-05-11T11:54:59;98352.59;;;29.91;23.04
64294;BME280;50636;45.596;5.258;2023-05-11T12:00:03;98356.19;;;27.59;24.91
64294;BME280;50636;45.596;5.258;2023-05-11T12:02:31;98352.44;;;27.25;26.59
64294;BME280;50636;45.596;5.258;2023-05-11T12:05:12;98339.09;;;28.02;26.30
64294;BME280;50636;45.596;5.258;2023-05-11T12:07:43;98350.41;;;27.78;26.08
64294;BME280;50636;45.596;5.258;2023-05-11T12:10:11;98357.31;;;27.05;27.69
64294;BME280;50636;45.596;5.258;2023-05-11T12:12:38;98355.09;;;26.90;28.36
64294;BME280;50636;45.596;5.258;2023-05-11T12:15:05;98356.00;;;26.59;28.43
64294;BME280;50636;45.596;5.258;2023-05-11T12:17:31;98366.00;;;26.67;29.40
64294;BME280;50636;45.596;5.258;2023-05-11T12:20:15;98352.06;;;27.53;28.24
64294;BME280;50636;45.596;5.258;2023-05-11T12:22:42;98359.25;;;27.31;28.62
64294;BME280;50636;45.596;5.258;2023-05-11T12:25:16;98346.06;;;26.86;28.23
64294;BME280;50636;45.596;5.258;2023-05-11T12:27:54;98349.00;;;26.49;29.22
64294;BME280;50636;45.596;5.258;2023-05-11T12:30:25;98350.81;;;27.50;27.68
64294;BME280;50636;45.596;5.258;2023-05-11T12:32:52;98348.91;;;26.72;28.65
64294;BME280;50636;45.596;5.258;2023-05-11T12:35:36;98370.81;;;25.23;31.11
64294;BME280;50636;45.596;5.258;2023-05-11T12:38:04;98363.84;;;23.88;33.16
64294;BME280;50636;45.596;5.258;2023-05-11T12:40:30;98376.25;;;22.76;34.52
64294;BME280;50636;45.596;5.258;2023-05-11T12:42:58;98384.16;;;21.89;36.31
64294;BME280;50636;45.596;5.258;2023-05-11T12:45:27;98384.81;;;21.37;38.32
64294;BME280;50636;45.596;5.258;2023-05-11T12:47:54;98385.81;;;21.06;39.05
64294;BME280;50636;45.596;5.258;2023-05-11T12:50:21;98375.44;;;21.00;38.44
64294;BME280;50636;45.596;5.258;2023-05-11T12:52:47;98380.25;;;21.03;38.20
64294;BME280;50636;45.596;5.258;2023-05-11T12:55:25;98374.53;;;21.14;37.69
64294;BME280;50636;45.596;5.258;2023-05-11T12:57:51;98369.97;;;21.20;37.32
64294;BME280;50636;45.596;5.258;2023-05-11T13:00:19;98381.59;;;21.40;39.57
64294;BME280;50636;45.596;5.258;2023-05-11T13:02:50;98372.19;;;21.13;43.60
64294;BME280;50636;45.596;5.258;2023-05-11T13:05:17;98391.09;;;20.67;46.61
64294;BME280;50636;45.596;5.258;2023-05-11T13:07:43;98402.16;;;20.14;50.17
64294;BME280;50636;45.596;5.258;2023-05-11T13:10:11;98397.38;;;19.54;51.85
64294;BME280;50636;45.596;5.258;2023-05-11T13:12:48;98400.81;;;19.14;53.74
64294;BME280;50636;45.596;5.258;2023-05-11T13:15:14;98403.41;;;18.99;55.11
64294;BME280;50636;45.596;5.258;2023-05-11T13:17:41;98402.13;;;19.06;55.59
64294;BME280;50636;45.596;5.258;2023-05-11T13:22:51;98393.09;;;19.64;53.71
64294;BME280;50636;45.596;5.258;2023-05-11T13:25:26;98397.66;;;19.99;52.11
64294;BME280;50636;45.596;5.258;2023-05-11T13:27:52;98397.56;;;20.30;50.28
64294;BME280;50636;45.596;5.258;2023-05-11T13:30:20;98400.69;;;20.58;49.37
64294;BME280;50636;45.596;5.258;2023-05-11T13:32:46;98407.06;;;20.72;48.55
64294;BME280;50636;45.596;5.258;2023-05-11T13:35:12;98410.81;;;20.71;48.16
64294;BME280;50636;45.596;5.258;2023-05-11T13:37:37;98407.84;;;20.83;47.38
64294;BME280;50636;45.596;5.258;2023-05-11T13:40:05;98399.78;;;20.88;46.38
64294;BME280;50636;45.596;5.258;2023-05-11T13:42:35;98403.81;;;20.80;45.80
64294;BME280;50636;45.596;5.258;2023-05-11T13:45:01;98402.50;;;20.83;45.86